This demonstration page uses our WeatherBlox Daily Observations layout. Learn more.

Hourly Observations for January 14, 2017

Temp ( °F °C ) Dew Point ( °F °C ) Humidity (%) Winds ( mph kmh ) Pressure ( in mb ) Visibility ( mi km ) Precip ( " mm )
12:54 am 00:54 Partly Cloudy 20 -6.7 10 -12.2 65 65 NNW 6 9 30.61 1037 10 16.0934 0 0
1:20 am 01:20 Mostly Cloudy 19 -7 10 -12 68 68 N 5 7 30.65 1038 10 16.0934 0 0
1:54 am 01:54 Mostly Clear 19 -7.2 10 -12.2 68 68 Calm 30.6 1036 10 16.0934 0 0
2:54 am 02:54 Mostly Cloudy 19 -7.2 10 -12.2 68 68 N 7 11 30.6 1036 10 16.0934 0 0
3:54 am 03:54 Clear 19 -7.2 11 -11.7 71 71 Calm 30.61 1037 10 16.0934 0 0
4:54 am 04:54 Clear 18 -7.8 11 -11.7 74 74 Calm 30.6 1036 10 16.0934 0 0
5:54 am 05:54 Clear 20 -6.7 12 -11.1 71 71 S 3 6 30.58 1036 10 16.0934 0 0
6:54 am 06:54 Clear 20 -6.7 12 -11.1 71 71 S 3 6 30.58 1036 10 16.0934 0 0
7:54 am 07:54 Sunny 21 -6.1 12 -11.1 68 68 Calm 30.59 1036 10 16.0934 0 0
8:54 am 08:54 Sunny 22 -5.6 12 -11.1 66 66 Calm 30.6 1036 10 16.0934 0 0
9:54 am 09:54 Sunny 25 -3.9 12 -11.1 58 58 Calm 30.61 1037 10 16.0934 0 0
10:54 am 10:54 Sunny 29 -1.7 11 -11.7 47 47 Calm 30.6 1036 10 16.0934 0 0
11:54 am 11:54 Sunny 32 0 11 -11.7 41 41 Calm 30.59 1036 10 16.0934 0 0
12:54 pm 12:54 Sunny 33 0.6 10 -12.2 38 38 VRB 5 7 30.55 1035 10 16.0934 0 0
1:54 pm 13:54 Sunny 35 1.7 11 -11.7 37 37 SE 3 6 30.52 1034 10 16.0934 0 0
2:54 pm 14:54 Sunny 38 3.3 12 -11.1 34 34 Calm 30.5 1033 10 16.0934 0 0
3:54 pm 15:54 Sunny 36 2.2 13 -10.6 39 39 Calm 30.51 1033 10 16.0934 0 0
4:54 pm 16:54 Sunny 32 0 13 -10.6 45 45 SE 3 6 30.5 1033 10 16.0934 0 0
5:54 pm 17:54 Clear 33 0.6 14 -10 45 45 SSE 3 6 30.51 1033 10 16.0934 0 0
6:54 pm 18:54 Clear 31 -0.6 17 -8.3 56 56 S 5 7 30.52 1034 10 16.0934 0 0
7:54 pm 19:54 Clear 32 0 16 -8.9 52 52 Calm 30.51 1033 10 16.0934 0 0
8:54 pm 20:54 Clear 30 -1.1 17 -8.3 58 58 Calm 30.5 1033 10 16.0934 0 0
9:54 pm 21:54 Clear 28 -2.2 18 -7.8 66 66 NE 7 11 30.47 1032 10 16.0934 0 0
10:54 pm 22:54 Mostly Cloudy 31 -0.6 19 -7.2 61 61 Calm 30.49 1033 10 16.0934 0 0
11:54 pm 23:54 Cloudy 30 -1.1 20 -6.7 66 66 S 5 7 30.48 1032 10 16.0934 0 0

Powered by AerisWeather